sensor_id;sensor_type;location;lat;lon;timestamp;pressure;altitude;pressure_sealevel;temperature;humidity
5609;BME280;2826;51.354;9.588;2023-03-03T00:02:22;98705.06;;;2.26;85.54
5609;BME280;2826;51.354;9.588;2023-03-03T00:04:49;98705.88;;;2.17;85.39
5609;BME280;2826;51.354;9.588;2023-03-03T00:07:16;98697.34;;;2.15;85.62
5609;BME280;2826;51.354;9.588;2023-03-03T00:09:47;98705.03;;;2.08;85.75
5609;BME280;2826;51.354;9.588;2023-03-03T00:12:20;98705.00;;;2.10;85.90
5609;BME280;2826;51.354;9.588;2023-03-03T00:14:49;98707.59;;;2.08;85.87
5609;BME280;2826;51.354;9.588;2023-03-03T00:17:20;98683.66;;;1.97;86.26
5609;BME280;2826;51.354;9.588;2023-03-03T00:19:47;98703.31;;;2.09;85.98
5609;BME280;2826;51.354;9.588;2023-03-03T00:22:21;98707.56;;;2.04;86.00
5609;BME280;2826;51.354;9.588;2023-03-03T00:24:51;98714.38;;;2.05;85.96
5609;BME280;2826;51.354;9.588;2023-03-03T00:27:24;98712.66;;;1.99;86.33
5609;BME280;2826;51.354;9.588;2023-03-03T00:29:55;98708.44;;;2.04;86.01
5609;BME280;2826;51.354;9.588;2023-03-03T00:32:24;98710.09;;;2.02;85.74
5609;BME280;2826;51.354;9.588;2023-03-03T00:34:53;98716.91;;;2.03;86.29
5609;BME280;2826;51.354;9.588;2023-03-03T00:37:29;98696.44;;;1.94;86.24
5609;BME280;2826;51.354;9.588;2023-03-03T00:40:12;98713.56;;;2.12;86.13
5609;BME280;2826;51.354;9.588;2023-03-03T00:42:44;98714.41;;;2.11;86.12
5609;BME280;2826;51.354;9.588;2023-03-03T00:45:36;98710.16;;;2.16;85.76
5609;BME280;2826;51.354;9.588;2023-03-03T00:48:22;98707.59;;;2.13;85.93
5609;BME280;2826;51.354;9.588;2023-03-03T00:50:50;98704.19;;;2.16;86.06
5609;BME280;2826;51.354;9.588;2023-03-03T00:53:19;98704.19;;;2.16;85.71
5609;BME280;2826;51.354;9.588;2023-03-03T00:55:47;98699.06;;;2.13;85.80
5609;BME280;2826;51.354;9.588;2023-03-03T00:58:16;98700.75;;;2.06;85.85
5609;BME280;2826;51.354;9.588;2023-03-03T01:00:46;98705.00;;;2.05;85.91
5609;BME280;2826;51.354;9.588;2023-03-03T01:03:18;98706.75;;;2.11;85.97
5609;BME280;2826;51.354;9.588;2023-03-03T01:05:46;98699.06;;;2.13;85.82
5609;BME280;2826;51.354;9.588;2023-03-03T01:08:13;98704.16;;;2.09;85.46
5609;BME280;2826;51.354;9.588;2023-03-03T01:10:43;98704.16;;;2.09;85.50
5609;BME280;2826;51.354;9.588;2023-03-03T01:13:11;98706.72;;;2.09;85.92
5609;BME280;2826;51.354;9.588;2023-03-03T01:15:38;98707.56;;;2.05;85.87
5609;BME280;2826;51.354;9.588;2023-03-03T01:18:07;98705.00;;;2.05;86.36
5609;BME280;2826;51.354;9.588;2023-03-03T01:20:34;98689.63;;;2.02;86.23
5609;BME280;2826;51.354;9.588;2023-03-03T01:23:01;98684.50;;;1.94;85.96
5609;BME280;2826;51.354;9.588;2023-03-03T01:25:28;98686.22;;;1.95;86.33
5609;BME280;2826;51.354;9.588;2023-03-03T01:27:55;98691.31;;;1.95;86.60
5609;BME280;2826;51.354;9.588;2023-03-03T01:30:22;98686.22;;;1.95;86.50
5609;BME280;2826;51.354;9.588;2023-03-03T01:32:49;98699.81;;;1.90;86.37
5609;BME280;2826;51.354;9.588;2023-03-03T01:35:17;98691.25;;;1.83;86.32
5609;BME280;2826;51.354;9.588;2023-03-03T01:37:44;98699.00;;;1.91;86.24
5609;BME280;2826;51.354;9.588;2023-03-03T01:40:16;98687.91;;;1.92;86.21
5609;BME280;2826;51.354;9.588;2023-03-03T01:42:43;98686.22;;;1.99;86.28
5609;BME280;2826;51.354;9.588;2023-03-03T01:45:14;98691.34;;;2.00;86.22
5609;BME280;2826;51.354;9.588;2023-03-03T01:47:44;98687.09;;;1.99;86.00
5609;BME280;2826;51.354;9.588;2023-03-03T01:50:14;98693.88;;;1.91;86.42
5609;BME280;2826;51.354;9.588;2023-03-03T01:52:45;98688.75;;;1.89;86.49
5609;BME280;2826;51.354;9.588;2023-03-03T01:55:15;98685.34;;;1.93;86.55
5609;BME280;2826;51.354;9.588;2023-03-03T01:57:48;98695.59;;;1.93;86.21
5609;BME280;2826;51.354;9.588;2023-03-03T02:00:18;98693.84;;;1.85;86.51
5609;BME280;2826;51.354;9.588;2023-03-03T02:02:45;98689.56;;;1.83;86.84
5609;BME280;2826;51.354;9.588;2023-03-03T02:05:12;98660.56;;;1.78;87.24
5609;BME280;2826;51.354;9.588;2023-03-03T02:07:42;98684.47;;;1.90;86.93
5609;BME280;2826;51.354;9.588;2023-03-03T02:10:15;98681.06;;;1.94;86.88
5609;BME280;2826;51.354;9.588;2023-03-03T02:12:44;98670.88;;;1.97;86.73
5609;BME280;2826;51.354;9.588;2023-03-03T02:15:19;98675.13;;;2.00;86.49
5609;BME280;2826;51.354;9.588;2023-03-03T02:17:47;98685.38;;;2.01;86.18
5609;BME280;2826;51.354;9.588;2023-03-03T02:20:23;98592.25;;;1.43;85.98
5609;BME280;2826;51.354;9.588;2023-03-03T02:22:57;98681.97;;;2.05;86.03
5609;BME280;2826;51.354;9.588;2023-03-03T02:25:32;98679.44;;;2.05;85.53
5609;BME280;2826;51.354;9.588;2023-03-03T02:28:03;98691.31;;;1.94;85.65
5609;BME280;2826;51.354;9.588;2023-03-03T02:34:11;98692.88;;;1.65;85.76
5609;BME280;2826;51.354;9.588;2023-03-03T02:36:39;98692.84;;;1.58;85.82
5609;BME280;2826;51.354;9.588;2023-03-03T02:39:08;98687.72;;;1.51;86.12
5609;BME280;2826;51.354;9.588;2023-03-03T02:41:38;98588.47;;;0.72;86.84
5609;BME280;2826;51.354;9.588;2023-03-03T02:44:10;98689.38;;;1.41;86.84
5609;BME280;2826;51.354;9.588;2023-03-03T02:46:39;98688.50;;;1.36;86.84
5609;BME280;2826;51.354;9.588;2023-03-03T02:49:08;98699.56;;;1.37;87.36
5609;BME280;2826;51.354;9.588;2023-03-03T02:51:35;98700.44;;;1.39;87.22
5609;BME280;2826;51.354;9.588;2023-03-03T02:54:03;98693.59;;;1.35;87.55
5609;BME280;2826;51.354;9.588;2023-03-03T02:56:31;98692.72;;;1.31;87.62
5609;BME280;2826;51.354;9.588;2023-03-03T02:58:59;98662.75;;;1.05;88.06
5609;BME280;2826;51.354;9.588;2023-03-03T03:01:31;98699.53;;;1.32;88.05
5609;BME280;2826;51.354;9.588;2023-03-03T03:04:05;98700.41;;;1.36;88.13
5609;BME280;2826;51.354;9.588;2023-03-03T03:06:32;98608.91;;;0.75;88.00
5609;BME280;2826;51.354;9.588;2023-03-03T03:09:00;98694.44;;;1.32;88.13
5609;BME280;2826;51.354;9.588;2023-03-03T03:11:26;98694.44;;;1.32;88.05
5609;BME280;2826;51.354;9.588;2023-03-03T03:13:53;98708.06;;;1.34;88.06
5609;BME280;2826;51.354;9.588;2023-03-03T03:16:20;98712.25;;;1.24;88.42
5609;BME280;2826;51.354;9.588;2023-03-03T03:18:48;98713.94;;;1.19;88.48
5609;BME280;2826;51.354;9.588;2023-03-03T03:21:16;98718.22;;;1.23;88.57
5609;BME280;2826;51.354;9.588;2023-03-03T03:23:43;98708.88;;;1.32;88.52
5609;BME280;2826;51.354;9.588;2023-03-03T03:26:11;98706.34;;;1.28;88.64
5609;BME280;2826;51.354;9.588;2023-03-03T03:28:38;98714.06;;;1.41;88.14
5609;BME280;2826;51.354;9.588;2023-03-03T03:31:06;98710.66;;;1.40;87.98
5609;BME280;2826;51.354;9.588;2023-03-03T03:33:35;98721.75;;;1.44;87.80
5609;BME280;2826;51.354;9.588;2023-03-03T03:36:05;98713.19;;;1.33;87.92
5609;BME280;2826;51.354;9.588;2023-03-03T03:38:33;98703.81;;;1.35;88.26
5609;BME280;2826;51.354;9.588;2023-03-03T03:41:03;98701.34;;;1.50;88.07
5609;BME280;2826;51.354;9.588;2023-03-03T03:43:31;98645.72;;;1.09;88.07
5609;BME280;2826;51.354;9.588;2023-03-03T03:45:59;98692.75;;;1.37;87.75
5609;BME280;2826;51.354;9.588;2023-03-03T03:48:25;98701.28;;;1.41;87.92
5609;BME280;2826;51.354;9.588;2023-03-03T03:50:53;98702.97;;;1.33;87.86
5609;BME280;2826;51.354;9.588;2023-03-03T03:53:23;98707.16;;;1.27;87.57
5609;BME280;2826;51.354;9.588;2023-03-03T03:55:50;98719.03;;;1.16;87.68
5609;BME280;2826;51.354;9.588;2023-03-03T03:58:18;98721.53;;;1.11;88.63
5609;BME280;2826;51.354;9.588;2023-03-03T04:00:51;98707.94;;;1.12;88.41
5609;BME280;2826;51.354;9.588;2023-03-03T04:03:18;98714.72;;;1.12;88.87
5609;BME280;2826;51.354;9.588;2023-03-03T04:05:46;98710.50;;;1.17;88.45
5609;BME280;2826;51.354;9.588;2023-03-03T04:08:13;98718.16;;;1.15;88.45
5609;BME280;2826;51.354;9.588;2023-03-03T04:10:47;98712.97;;;1.03;88.46
5609;BME280;2826;51.354;9.588;2023-03-03T04:13:15;98718.97;;;1.10;88.77
5609;BME280;2826;51.354;9.588;2023-03-03T04:15:41;98724.91;;;1.04;89.14
5609;BME280;2826;51.354;9.588;2023-03-03T04:18:08;98724.91;;;1.06;89.30
5609;BME280;2826;51.354;9.588;2023-03-03T04:20:35;98730.00;;;1.07;88.85
5609;BME280;2826;51.354;9.588;2023-03-03T04:23:01;98721.53;;;1.11;88.73
5609;BME280;2826;51.354;9.588;2023-03-03T04:25:30;98726.63;;;1.07;88.62
5609;BME280;2826;51.354;9.588;2023-03-03T04:27:58;98729.09;;;0.97;88.36
5609;BME280;2826;51.354;9.588;2023-03-03T04:30:25;98719.69;;;0.91;88.54
5609;BME280;2826;51.354;9.588;2023-03-03T04:32:55;98719.63;;;0.87;88.91
5609;BME280;2826;51.354;9.588;2023-03-03T04:35:24;98709.47;;;0.93;89.11
5609;BME280;2826;51.354;9.588;2023-03-03T04:37:51;98712.88;;;0.92;88.79
5609;BME280;2826;51.354;9.588;2023-03-03T04:40:19;98721.31;;;0.85;88.87
5609;BME280;2826;51.354;9.588;2023-03-03T04:42:48;98706.81;;;0.81;88.87
5609;BME280;2826;51.354;9.588;2023-03-03T04:45:16;98716.25;;;0.86;89.69
5609;BME280;2826;51.354;9.588;2023-03-03T04:47:44;98719.72;;;0.95;89.36
5609;BME280;2826;51.354;9.588;2023-03-03T04:50:11;98723.16;;;1.01;89.59
5609;BME280;2826;51.354;9.588;2023-03-03T04:52:39;98725.75;;;1.08;89.37
5609;BME280;2826;51.354;9.588;2023-03-03T04:55:08;98722.38;;;1.10;88.92
5609;BME280;2826;51.354;9.588;2023-03-03T04:57:35;98715.50;;;1.04;88.68
5609;BME280;2826;51.354;9.588;2023-03-03T05:00:03;98715.56;;;1.09;88.76
5609;BME280;2826;51.354;9.588;2023-03-03T05:02:32;98722.28;;;0.99;89.14
5609;BME280;2826;51.354;9.588;2023-03-03T05:04:59;98716.31;;;0.97;89.29
5609;BME280;2826;51.354;9.588;2023-03-03T05:07:26;98719.72;;;0.98;89.11
5609;BME280;2826;51.354;9.588;2023-03-03T05:09:52;98730.81;;;0.98;89.32
5609;BME280;2826;51.354;9.588;2023-03-03T05:12:19;98739.28;;;0.96;89.14
5609;BME280;2826;51.354;9.588;2023-03-03T05:14:45;98736.72;;;0.94;89.35
5609;BME280;2826;51.354;9.588;2023-03-03T05:17:12;98735.84;;;0.90;89.55
5609;BME280;2826;51.354;9.588;2023-03-03T05:19:40;98738.44;;;0.95;89.58
5609;BME280;2826;51.354;9.588;2023-03-03T05:22:07;98738.41;;;0.92;89.30
5609;BME280;2826;51.354;9.588;2023-03-03T05:24:34;98739.25;;;0.88;89.27
5609;BME280;2826;51.354;9.588;2023-03-03T05:27:01;98743.34;;;0.75;89.49
5609;BME280;2826;51.354;9.588;2023-03-03T05:29:28;98743.44;;;0.81;89.74
5609;BME280;2826;51.354;9.588;2023-03-03T05:31:55;98750.25;;;0.82;89.50
5609;BME280;2826;51.354;9.588;2023-03-03T05:34:22;98757.09;;;0.86;89.53
5609;BME280;2826;51.354;9.588;2023-03-03T05:36:50;98744.28;;;0.83;89.33
5609;BME280;2826;51.354;9.588;2023-03-03T05:39:16;98751.06;;;0.80;89.29
5609;BME280;2826;51.354;9.588;2023-03-03T05:41:43;98747.72;;;0.84;89.37
5609;BME280;2826;51.354;9.588;2023-03-03T05:44:09;98747.72;;;0.87;89.37
5609;BME280;2826;51.354;9.588;2023-03-03T05:46:36;98741.72;;;0.83;89.42
5609;BME280;2826;51.354;9.588;2023-03-03T05:49:02;98744.34;;;0.88;89.36
5609;BME280;2826;51.354;9.588;2023-03-03T05:51:29;98755.38;;;0.85;89.12
5609;BME280;2826;51.354;9.588;2023-03-03T05:53:57;98756.19;;;0.81;89.21
5609;BME280;2826;51.354;9.588;2023-03-03T05:56:24;98746.00;;;0.86;89.28
5609;BME280;2826;51.354;9.588;2023-03-03T05:58:50;98754.47;;;0.80;89.06
5609;BME280;2826;51.354;9.588;2023-03-03T06:01:17;98740.88;;;0.80;89.53
5609;BME280;2826;51.354;9.588;2023-03-03T06:03:44;98744.25;;;0.78;89.36
5609;BME280;2826;51.354;9.588;2023-03-03T06:06:10;98740.88;;;0.80;89.47
5609;BME280;2826;51.354;9.588;2023-03-03T06:08:38;98752.66;;;0.68;89.19
5609;BME280;2826;51.354;9.588;2023-03-03T06:11:06;98754.25;;;0.57;89.21
5609;BME280;2826;51.354;9.588;2023-03-03T06:13:33;98762.69;;;0.49;89.45
5609;BME280;2826;51.354;9.588;2023-03-03T06:15:59;98764.38;;;0.49;89.38
5609;BME280;2826;51.354;9.588;2023-03-03T06:18:26;98771.94;;;0.41;89.78
5609;BME280;2826;51.354;9.588;2023-03-03T06:20:54;98785.69;;;0.52;90.16
5609;BME280;2826;51.354;9.588;2023-03-03T06:23:21;98779.78;;;0.57;90.31
5609;BME280;2826;51.354;9.588;2023-03-03T06:25:48;98783.19;;;0.59;90.12
5609;BME280;2826;51.354;9.588;2023-03-03T06:28:16;98789.19;;;0.62;90.40
5609;BME280;2826;51.354;9.588;2023-03-03T06:30:42;98783.22;;;0.62;90.13
5609;BME280;2826;51.354;9.588;2023-03-03T06:33:09;98788.28;;;0.57;89.51
5609;BME280;2826;51.354;9.588;2023-03-03T06:35:36;98786.53;;;0.53;89.60
5609;BME280;2826;51.354;9.588;2023-03-03T06:38:02;98790.66;;;0.42;89.70
5609;BME280;2826;51.354;9.588;2023-03-03T06:40:29;98800.06;;;0.44;90.48
5609;BME280;2826;51.354;9.588;2023-03-03T06:42:55;98800.09;;;0.49;90.80
5609;BME280;2826;51.354;9.588;2023-03-03T06:45:23;98799.31;;;0.55;90.16
5609;BME280;2826;51.354;9.588;2023-03-03T06:47:50;98795.00;;;0.50;90.06
5609;BME280;2826;51.354;9.588;2023-03-03T06:50:19;98795.84;;;0.48;90.28
5609;BME280;2826;51.354;9.588;2023-03-03T06:52:46;98799.25;;;0.48;90.56
5609;BME280;2826;51.354;9.588;2023-03-03T06:55:17;98800.94;;;0.48;90.75
5609;BME280;2826;51.354;9.588;2023-03-03T06:57:46;98793.38;;;0.54;90.87
5609;BME280;2826;51.354;9.588;2023-03-03T07:00:16;98800.22;;;0.61;90.75
5609;BME280;2826;51.354;9.588;2023-03-03T07:02:46;98794.41;;;0.73;90.58
5609;BME280;2826;51.354;9.588;2023-03-03T07:05:15;98788.47;;;0.77;90.63
5609;BME280;2826;51.354;9.588;2023-03-03T07:07:42;98772.19;;;0.63;90.29
5609;BME280;2826;51.354;9.588;2023-03-03T07:10:17;98803.88;;;0.84;90.33
5609;BME280;2826;51.354;9.588;2023-03-03T07:12:46;98810.72;;;0.88;90.13
5609;BME280;2826;51.354;9.588;2023-03-03T07:15:15;98810.75;;;0.93;90.01
5609;BME280;2826;51.354;9.588;2023-03-03T07:17:44;98802.31;;;1.00;89.94
5609;BME280;2826;51.354;9.588;2023-03-03T07:20:19;98805.78;;;1.05;89.80
5609;BME280;2826;51.354;9.588;2023-03-03T07:22:47;98817.66;;;1.00;88.99
5609;BME280;2826;51.354;9.588;2023-03-03T07:25:26;98817.69;;;1.03;89.33
5609;BME280;2826;51.354;9.588;2023-03-03T07:27:59;98816.84;;;1.07;89.07
5609;BME280;2826;51.354;9.588;2023-03-03T07:30:28;98791.06;;;0.79;88.95
5609;BME280;2826;51.354;9.588;2023-03-03T07:32:57;98826.94;;;0.91;88.91
5609;BME280;2826;51.354;9.588;2023-03-03T07:35:41;98823.56;;;0.96;89.12
5609;BME280;2826;51.354;9.588;2023-03-03T07:38:23;98838.78;;;0.85;88.78
5609;BME280;2826;51.354;9.588;2023-03-03T07:40:52;98833.72;;;0.91;89.04
5609;BME280;2826;51.354;9.588;2023-03-03T07:43:34;98839.75;;;0.95;88.85
5609;BME280;2826;51.354;9.588;2023-03-03T07:46:22;98821.81;;;0.91;88.92
5609;BME280;2826;51.354;9.588;2023-03-03T07:48:50;98832.22;;;1.12;89.09
5609;BME280;2826;51.354;9.588;2023-03-03T07:51:21;98841.63;;;1.16;88.38
5609;BME280;2826;51.354;9.588;2023-03-03T07:53:50;98847.56;;;1.12;88.18
5609;BME280;2826;51.354;9.588;2023-03-03T07:56:26;98850.13;;;1.13;88.04
5609;BME280;2826;51.354;9.588;2023-03-03T07:58:53;98851.03;;;1.19;88.03
5609;BME280;2826;51.354;9.588;2023-03-03T08:01:39;98860.38;;;1.18;87.58
5609;BME280;2826;51.354;9.588;2023-03-03T08:04:18;98859.56;;;1.19;87.44
5609;BME280;2826;51.354;9.588;2023-03-03T08:06:51;98872.31;;;1.21;87.27
5609;BME280;2826;51.354;9.588;2023-03-03T08:09:41;98865.59;;;1.29;86.85
5609;BME280;2826;51.354;9.588;2023-03-03T08:12:30;98864.72;;;1.27;86.45
5609;BME280;2826;51.354;9.588;2023-03-03T08:15:09;98863.00;;;1.23;86.38
5609;BME280;2826;51.354;9.588;2023-03-03T08:17:38;98868.13;;;1.24;86.83
5609;BME280;2826;51.354;9.588;2023-03-03T08:23:18;98878.44;;;1.34;86.15
5609;BME280;2826;51.354;9.588;2023-03-03T08:25:46;98874.97;;;1.28;86.21
5609;BME280;2826;51.354;9.588;2023-03-03T08:28:13;98875.69;;;1.15;86.30
5609;BME280;2826;51.354;9.588;2023-03-03T08:30:41;98873.09;;;1.10;87.21
5609;BME280;2826;51.354;9.588;2023-03-03T08:33:08;98878.38;;;1.29;87.80
5609;BME280;2826;51.354;9.588;2023-03-03T08:35:35;98873.38;;;1.41;87.84
5609;BME280;2826;51.354;9.588;2023-03-03T08:38:02;98878.53;;;1.45;86.84
5609;BME280;2826;51.354;9.588;2023-03-03T08:40:31;98876.88;;;1.53;86.40
5609;BME280;2826;51.354;9.588;2023-03-03T08:42:58;98882.03;;;1.59;86.94
5609;BME280;2826;51.354;9.588;2023-03-03T08:45:25;98875.25;;;1.61;86.40
5609;BME280;2826;51.354;9.588;2023-03-03T08:47:52;98875.28;;;1.66;85.84
5609;BME280;2826;51.354;9.588;2023-03-03T08:50:19;98881.31;;;1.74;85.69
5609;BME280;2826;51.354;9.588;2023-03-03T08:52:46;98867.63;;;1.69;85.25
5609;BME280;2826;51.354;9.588;2023-03-03T08:55:13;98883.94;;;1.85;84.94
5609;BME280;2826;51.354;9.588;2023-03-03T08:57:41;98883.09;;;1.86;84.28
5609;BME280;2826;51.354;9.588;2023-03-03T09:00:12;98877.06;;;1.78;84.56
5609;BME280;2826;51.354;9.588;2023-03-03T09:02:41;98880.53;;;1.85;84.69
5609;BME280;2826;51.354;9.588;2023-03-03T09:05:09;98882.31;;;1.98;84.77
5609;BME280;2826;51.354;9.588;2023-03-03T09:07:37;98887.47;;;2.03;84.32
5609;BME280;2826;51.354;9.588;2023-03-03T09:10:04;98885.00;;;2.14;84.56
5609;BME280;2826;51.354;9.588;2023-03-03T09:12:34;98887.56;;;2.17;83.60
5609;BME280;2826;51.354;9.588;2023-03-03T09:15:14;98882.50;;;2.23;83.24
5609;BME280;2826;51.354;9.588;2023-03-03T09:17:41;98889.34;;;2.27;83.13
5609;BME280;2826;51.354;9.588;2023-03-03T09:20:22;98880.84;;;2.31;82.26
5609;BME280;2826;51.354;9.588;2023-03-03T09:22:50;98886.84;;;2.38;82.13
5609;BME280;2826;51.354;9.588;2023-03-03T09:25:25;98892.88;;;2.53;82.70
5609;BME280;2826;51.354;9.588;2023-03-03T09:27:53;98889.53;;;2.66;82.35
5609;BME280;2826;51.354;9.588;2023-03-03T09:30:35;98889.56;;;2.77;81.36
5609;BME280;2826;51.354;9.588;2023-03-03T09:33:22;98871.56;;;2.57;79.87
5609;BME280;2826;51.354;9.588;2023-03-03T09:35:51;98885.25;;;2.70;80.00
5609;BME280;2826;51.354;9.588;2023-03-03T09:38:26;98888.66;;;2.63;80.42
5609;BME280;2826;51.354;9.588;2023-03-03T09:41:18;98889.47;;;2.61;80.03
5609;BME280;2826;51.354;9.588;2023-03-03T09:44:00;98894.66;;;2.74;80.04
5609;BME280;2826;51.354;9.588;2023-03-03T09:46:40;98904.06;;;2.72;79.13
5609;BME280;2826;51.354;9.588;2023-03-03T09:49:19;98906.56;;;2.59;79.12
5609;BME280;2826;51.354;9.588;2023-03-03T09:52:05;98903.13;;;2.59;79.88
5609;BME280;2826;51.354;9.588;2023-03-03T09:54:42;98906.59;;;2.67;79.52
5609;BME280;2826;51.354;9.588;2023-03-03T09:57:14;98912.56;;;2.68;79.32
5609;BME280;2826;51.354;9.588;2023-03-03T10:00:03;98915.13;;;2.68;79.19
5609;BME280;2826;51.354;9.588;2023-03-03T10:02:47;98920.19;;;2.55;79.48
5609;BME280;2826;51.354;9.588;2023-03-03T10:05:20;98911.66;;;2.58;79.68
5609;BME280;2826;51.354;9.588;2023-03-03T10:08:01;98915.13;;;2.60;79.31
5609;BME280;2826;51.354;9.588;2023-03-03T10:10:42;98914.25;;;2.66;79.18
5609;BME280;2826;51.354;9.588;2023-03-03T10:13:24;98910.88;;;2.67;78.59
5609;BME280;2826;51.354;9.588;2023-03-03T10:16:04;98908.22;;;2.53;78.53
5609;BME280;2826;51.354;9.588;2023-03-03T10:18:41;98904.75;;;2.41;79.11
5609;BME280;2826;51.354;9.588;2023-03-03T10:21:21;98909.03;;;2.41;79.53
5609;BME280;2826;51.354;9.588;2023-03-03T10:23:55;98905.63;;;2.43;79.56
5609;BME280;2826;51.354;9.588;2023-03-03T10:26:50;98896.31;;;2.58;79.45
5609;BME280;2826;51.354;9.588;2023-03-03T10:29:30;98900.66;;;2.76;79.94
5609;BME280;2826;51.354;9.588;2023-03-03T10:35:20;98909.28;;;3.06;78.24
5609;BME280;2826;51.354;9.588;2023-03-03T10:38:04;98915.22;;;2.86;77.63
5609;BME280;2826;51.354;9.588;2023-03-03T10:40:39;98895.44;;;2.53;77.92
5609;BME280;2826;51.354;9.588;2023-03-03T10:43:20;98904.00;;;2.58;79.24
5609;BME280;2826;51.354;9.588;2023-03-03T10:46:09;98916.81;;;2.61;79.60
5609;BME280;2826;51.354;9.588;2023-03-03T10:48:53;98911.69;;;2.59;79.68
5609;BME280;2826;51.354;9.588;2023-03-03T10:51:30;98915.13;;;2.66;79.77
5609;BME280;2826;51.354;9.588;2023-03-03T10:54:11;98868.88;;;2.32;79.49
5609;BME280;2826;51.354;9.588;2023-03-03T10:56:44;98931.31;;;2.60;79.39
5609;BME280;2826;51.354;9.588;2023-03-03T10:59:38;98925.34;;;2.58;80.07
5609;BME280;2826;51.354;9.588;2023-03-03T11:02:18;98927.03;;;2.58;79.41
5609;BME280;2826;51.354;9.588;2023-03-03T11:04:57;98932.13;;;2.55;79.51
5609;BME280;2826;51.354;9.588;2023-03-03T11:07:34;98920.13;;;2.44;79.29
5609;BME280;2826;51.354;9.588;2023-03-03T11:10:17;98915.88;;;2.45;80.43
5609;BME280;2826;51.354;9.588;2023-03-03T11:12:54;98922.72;;;2.46;80.39
5609;BME280;2826;51.354;9.588;2023-03-03T11:15:57;98915.94;;;2.57;80.03
5609;BME280;2826;51.354;9.588;2023-03-03T11:18:34;98921.13;;;2.67;79.76
5609;BME280;2826;51.354;9.588;2023-03-03T11:21:11;98916.88;;;2.73;79.11
5609;BME280;2826;51.354;9.588;2023-03-03T11:23:54;98919.47;;;2.87;79.89
5609;BME280;2826;51.354;9.588;2023-03-03T11:26:59;98918.69;;;3.13;79.45
5609;BME280;2826;51.354;9.588;2023-03-03T11:29:43;98911.06;;;3.35;78.33
5609;BME280;2826;51.354;9.588;2023-03-03T11:32:22;98919.59;;;3.31;76.96
5609;BME280;2826;51.354;9.588;2023-03-03T11:34:59;98917.03;;;3.31;77.41
5609;BME280;2826;51.354;9.588;2023-03-03T11:37:38;98911.03;;;3.23;76.33
5609;BME280;2826;51.354;9.588;2023-03-03T11:40:14;98918.69;;;3.13;77.04
5609;BME280;2826;51.354;9.588;2023-03-03T11:42:49;98917.03;;;3.22;77.46
5609;BME280;2826;51.354;9.588;2023-03-03T11:45:25;98913.63;;;3.34;77.11
5609;BME280;2826;51.354;9.588;2023-03-03T11:47:58;98901.66;;;3.48;77.06
5609;BME280;2826;51.354;9.588;2023-03-03T11:50:30;98902.53;;;3.55;76.33
5609;BME280;2826;51.354;9.588;2023-03-03T11:53:12;98911.09;;;3.46;74.63
5609;BME280;2826;51.354;9.588;2023-03-03T11:55:48;98900.81;;;3.35;75.09
5609;BME280;2826;51.354;9.588;2023-03-03T11:58:21;98900.81;;;3.42;76.20
5609;BME280;2826;51.354;9.588;2023-03-03T12:00:53;98896.56;;;3.56;75.13
5609;BME280;2826;51.354;9.588;2023-03-03T12:03:29;98898.28;;;3.65;74.10
5609;BME280;2826;51.354;9.588;2023-03-03T12:06:07;98896.56;;;3.84;74.80
5609;BME280;2826;51.354;9.588;2023-03-03T12:08:59;98892.25;;;4.08;74.77
5609;BME280;2826;51.354;9.588;2023-03-03T12:11:32;98893.09;;;4.21;72.76
5609;BME280;2826;51.354;9.588;2023-03-03T12:14:10;98884.53;;;4.19;72.54
5609;BME280;2826;51.354;9.588;2023-03-03T12:16:50;98879.38;;;4.36;72.55
5609;BME280;2826;51.354;9.588;2023-03-03T12:19:30;98880.13;;;4.54;72.21
5609;BME280;2826;51.354;9.588;2023-03-03T12:22:10;98866.47;;;4.55;71.12
5609;BME280;2826;51.354;9.588;2023-03-03T12:24:50;98875.81;;;4.67;69.71
5609;BME280;2826;51.354;9.588;2023-03-03T12:27:27;98874.09;;;4.70;71.24
5609;BME280;2826;51.354;9.588;2023-03-03T12:30:05;98873.13;;;4.93;70.77
5609;BME280;2826;51.354;9.588;2023-03-03T12:32:47;98870.53;;;4.98;69.76
5609;BME280;2826;51.354;9.588;2023-03-03T12:35:19;98865.34;;;5.03;69.53
5609;BME280;2826;51.354;9.588;2023-03-03T12:37:56;98857.63;;;5.07;69.10
5609;BME280;2826;51.354;9.588;2023-03-03T12:40:31;98862.72;;;5.17;68.68
5609;BME280;2826;51.354;9.588;2023-03-03T12:43:15;98863.59;;;5.16;67.99
5609;BME280;2826;51.354;9.588;2023-03-03T12:45:53;98860.94;;;5.28;67.85
5609;BME280;2826;51.354;9.588;2023-03-03T12:48:25;98847.31;;;5.12;66.67
5609;BME280;2826;51.354;9.588;2023-03-03T12:50:59;98850.78;;;5.06;66.55
5609;BME280;2826;51.354;9.588;2023-03-03T12:53:39;98863.72;;;4.94;67.18
5609;BME280;2826;51.354;9.588;2023-03-03T12:56:12;98854.31;;;4.85;68.09
5609;BME280;2826;51.354;9.588;2023-03-03T12:58:50;98851.72;;;4.93;68.34
5609;BME280;2826;51.354;9.588;2023-03-03T13:01:37;98856.88;;;4.90;67.83
5609;BME280;2826;51.354;9.588;2023-03-03T13:04:12;98841.47;;;4.87;67.64
5609;BME280;2826;51.354;9.588;2023-03-03T13:06:49;98837.19;;;4.87;67.67
5609;BME280;2826;51.354;9.588;2023-03-03T13:09:31;98835.50;;;4.83;68.58
5609;BME280;2826;51.354;9.588;2023-03-03T13:12:22;98846.66;;;4.80;68.46
5609;BME280;2826;51.354;9.588;2023-03-03T13:14:56;98833.03;;;4.66;68.18
5609;BME280;2826;51.354;9.588;2023-03-03T13:17:28;98841.50;;;4.80;68.69
5609;BME280;2826;51.354;9.588;2023-03-03T13:19:58;98841.47;;;4.87;68.70
5609;BME280;2826;51.354;9.588;2023-03-03T13:22:36;98835.44;;;4.94;68.53
5609;BME280;2826;51.354;9.588;2023-03-03T13:25:13;98838.88;;;4.94;67.59
5609;BME280;2826;51.354;9.588;2023-03-03T13:27:47;98836.38;;;4.83;68.02
5609;BME280;2826;51.354;9.588;2023-03-03T13:30:20;98841.53;;;4.74;67.95
5609;BME280;2826;51.354;9.588;2023-03-03T13:32:53;98839.03;;;4.63;68.22
5609;BME280;2826;51.354;9.588;2023-03-03T13:35:32;98833.81;;;4.77;68.52
5609;BME280;2826;51.354;9.588;2023-03-03T13:38:09;98837.19;;;4.90;68.75
5609;BME280;2826;51.354;9.588;2023-03-03T13:40:42;98841.41;;;5.01;68.09
5609;BME280;2826;51.354;9.588;2023-03-03T13:43:14;98838.69;;;5.19;68.57
5609;BME280;2826;51.354;9.588;2023-03-03T13:45:50;98828.41;;;5.22;67.46
5609;BME280;2826;51.354;9.588;2023-03-03T13:48:54;98835.31;;;5.11;67.99
5609;BME280;2826;51.354;9.588;2023-03-03T13:51:35;98832.75;;;5.09;67.81
5609;BME280;2826;51.354;9.588;2023-03-03T13:54:11;98828.53;;;5.04;67.41
5609;BME280;2826;51.354;9.588;2023-03-03T13:57:07;98827.66;;;5.02;68.02
5609;BME280;2826;51.354;9.588;2023-03-03T13:59:46;98827.78;;;4.88;68.51
5609;BME280;2826;51.354;9.588;2023-03-03T14:05:12;98826.19;;;4.60;69.85
5609;BME280;2826;51.354;9.588;2023-03-03T14:07:44;98806.56;;;4.40;70.14
5609;BME280;2826;51.354;9.588;2023-03-03T14:10:19;98821.09;;;4.49;70.54
5609;BME280;2826;51.354;9.588;2023-03-03T14:12:50;98827.94;;;4.50;70.75
5609;BME280;2826;51.354;9.588;2023-03-03T14:15:25;98824.50;;;4.57;70.77